createdAt,value
2022-12-22T00:03:03.404Z,10.23
2022-12-22T00:08:25.754Z,10.22
2022-12-22T00:13:46.494Z,10.26
2022-12-22T00:19:06.855Z,10.24
2022-12-22T00:24:28.305Z,10.20
2022-12-22T00:29:55.112Z,10.23
2022-12-22T00:35:15.521Z,9.93
2022-12-22T00:40:40.011Z,10.29
2022-12-22T00:46:00.461Z,10.23
2022-12-22T00:51:20.574Z,10.26
2022-12-22T00:56:42.105Z,10.25
2022-12-22T01:02:02.630Z,10.26
2022-12-22T01:07:23.149Z,10.30
2022-12-22T01:12:46.780Z,10.28
2022-12-22T01:18:07.073Z,10.29
2022-12-22T01:23:29.149Z,10.27
2022-12-22T01:28:50.735Z,10.31
2022-12-22T01:34:11.185Z,10.32
2022-12-22T01:39:33.230Z,10.32
2022-12-22T01:44:54.734Z,10.35
2022-12-22T01:50:15.521Z,10.35
2022-12-22T01:55:39.245Z,10.44
2022-12-22T02:06:33.837Z,10.44
2022-12-22T02:12:07.920Z,10.37
2022-12-22T02:17:35.731Z,10.44
2022-12-22T02:23:07.857Z,10.42
2022-12-22T02:28:31.247Z,10.27
2022-12-22T02:33:52.312Z,10.43
2022-12-22T02:39:21.546Z,10.44
2022-12-22T02:44:54.044Z,10.39
2022-12-22T02:50:18.787Z,10.46
2022-12-22T02:55:39.762Z,10.49
2022-12-22T03:01:01.631Z,10.49
2022-12-22T03:06:22.125Z,10.50
2022-12-22T03:11:42.578Z,10.53
2022-12-22T03:17:03.895Z,10.52
2022-12-22T03:22:24.151Z,10.54
2022-12-22T03:27:27.244Z,10.56
2022-12-22T03:32:31.329Z,10.53
2022-12-22T03:37:33.926Z,10.50
2022-12-22T03:42:54.069Z,10.48
2022-12-22T03:47:57.960Z,10.49
2022-12-22T03:53:00.554Z,10.45
2022-12-22T03:58:03.069Z,10.52
2022-12-22T04:03:07.004Z,10.46
2022-12-22T04:08:09.649Z,10.45
2022-12-22T04:13:12.245Z,10.45
2022-12-22T04:18:16.263Z,10.52
2022-12-22T04:23:18.862Z,10.58
2022-12-22T04:28:21.474Z,10.56
2022-12-22T04:33:25.670Z,10.53
2022-12-22T04:38:28.266Z,10.47
2022-12-22T04:43:30.954Z,10.39
2022-12-22T04:48:35.103Z,10.41
2022-12-22T04:53:37.684Z,10.43
2022-12-22T04:58:40.214Z,10.38
2022-12-22T05:03:44.209Z,10.38
2022-12-22T05:08:46.847Z,10.39
2022-12-22T05:13:49.387Z,10.10
2022-12-22T05:18:53.257Z,10.38
2022-12-22T05:23:55.806Z,10.53
2022-12-22T05:29:00.304Z,10.47
2022-12-22T05:34:04.220Z,10.46
2022-12-22T05:39:06.765Z,10.39
2022-12-22T05:44:09.461Z,10.43
2022-12-22T05:49:13.794Z,10.46
2022-12-22T05:54:16.329Z,10.46
2022-12-22T05:59:18.917Z,10.54
2022-12-22T06:04:23.092Z,10.55
2022-12-22T06:09:25.831Z,10.53
2022-12-22T06:14:28.382Z,10.49
2022-12-22T06:19:32.679Z,10.39
2022-12-22T06:24:35.205Z,10.50
2022-12-22T06:29:37.789Z,10.48
2022-12-22T06:34:41.839Z,10.19
2022-12-22T06:39:48.970Z,10.52
2022-12-22T06:44:54.834Z,10.56
2022-12-22T06:49:58.699Z,10.53
2022-12-22T06:55:02.112Z,10.48
2022-12-22T07:00:06.561Z,10.49
2022-12-22T07:05:10.810Z,10.53
2022-12-22T07:10:13.502Z,10.57
2022-12-22T07:15:16.067Z,10.78
2022-12-22T07:20:19.969Z,10.87
2022-12-22T07:25:22.502Z,10.84
2022-12-22T07:30:25.108Z,10.92
2022-12-22T07:35:29.000Z,11.10
2022-12-22T07:40:31.920Z,11.22
2022-12-22T07:45:34.943Z,11.06
2022-12-22T07:50:38.823Z,11.11
2022-12-22T07:55:41.359Z,11.11
2022-12-22T08:00:43.901Z,11.23
2022-12-22T08:05:47.786Z,11.28
2022-12-22T08:10:50.314Z,11.33
2022-12-22T08:15:52.903Z,11.30
2022-12-22T08:20:56.882Z,11.17
2022-12-22T08:26:04.548Z,11.32
2022-12-22T08:31:08.670Z,11.22
2022-12-22T08:36:13.042Z,11.13
2022-12-22T08:41:37.081Z,10.99
2022-12-22T08:46:39.681Z,10.90
2022-12-22T08:51:43.982Z,10.92
2022-12-22T08:56:46.733Z,11.05
2022-12-22T09:01:50.707Z,11.21
2022-12-22T09:06:55.149Z,11.49
2022-12-22T09:11:57.715Z,11.51
2022-12-22T09:17:00.456Z,11.49
2022-12-22T09:22:04.757Z,11.53
2022-12-22T09:27:09.085Z,11.24
2022-12-22T09:32:11.714Z,11.43
2022-12-22T09:37:16.623Z,11.33
2022-12-22T09:42:23.113Z,11.56
2022-12-22T09:47:33.270Z,11.42
2022-12-22T09:52:47.156Z,11.54
2022-12-22T09:57:49.731Z,11.20
2022-12-22T10:03:01.272Z,11.47
2022-12-22T10:08:11.961Z,11.46
2022-12-22T10:13:19.329Z,11.54
2022-12-22T10:18:24.348Z,11.51
2022-12-22T10:23:30.337Z,11.49
2022-12-22T10:28:37.621Z,11.44
2022-12-22T10:33:46.250Z,11.48
2022-12-22T10:39:03.933Z,11.24
2022-12-22T10:44:10.217Z,11.37
2022-12-22T10:49:18.181Z,11.37
2022-12-22T10:54:31.514Z,11.43
2022-12-22T10:59:35.020Z,11.15
2022-12-22T11:04:37.610Z,11.46
2022-12-22T11:09:41.584Z,11.42
2022-12-22T11:14:53.922Z,11.42
2022-12-22T11:20:10.876Z,11.37
2022-12-22T11:25:28.788Z,11.35
2022-12-22T11:30:42.088Z,11.37
2022-12-22T11:35:58.290Z,11.75
2022-12-22T11:41:10.521Z,11.71
2022-12-22T11:46:22.170Z,11.65
2022-12-22T11:51:38.375Z,11.64
2022-12-22T11:56:45.184Z,11.28
2022-12-22T12:02:03.758Z,11.24
2022-12-22T12:07:28.148Z,11.34
2022-12-22T12:12:41.903Z,11.34
2022-12-22T12:18:03.955Z,11.30
2022-12-22T12:23:24.247Z,11.36
2022-12-22T12:28:36.416Z,11.35
2022-12-22T12:33:45.644Z,11.24
2022-12-22T12:39:08.878Z,11.19
2022-12-22T12:44:15.948Z,11.41
2022-12-22T12:50:02.181Z,11.30
2022-12-22T12:55:31.946Z,11.24
2022-12-22T13:00:52.596Z,10.82
2022-12-22T13:06:01.135Z,11.03
2022-12-22T13:12:10.415Z,11.19
2022-12-22T13:17:33.772Z,11.01
2022-12-22T13:22:36.642Z,10.80
2022-12-22T13:27:39.214Z,10.86
2022-12-22T13:32:45.838Z,10.77
2022-12-22T13:37:49.821Z,10.90
2022-12-22T13:42:55.289Z,10.61
2022-12-22T13:48:01.499Z,10.74
2022-12-22T13:53:07.924Z,10.78
2022-12-22T13:58:27.706Z,10.67
2022-12-22T14:03:58.768Z,10.36
2022-12-22T14:08:54.160Z,10.74
2022-12-22T14:13:56.786Z,10.71
2022-12-22T14:19:01.241Z,10.78
2022-12-22T14:24:04.578Z,10.88
2022-12-22T14:29:13.973Z,10.81
2022-12-22T14:34:28.659Z,10.84
2022-12-22T14:39:36.986Z,10.83
2022-12-22T14:44:45.062Z,10.85
2022-12-22T14:49:51.308Z,10.72
2022-12-22T14:54:55.510Z,10.84
2022-12-22T15:00:03.797Z,10.78
2022-12-22T15:05:15.910Z,10.73
2022-12-22T15:10:18.517Z,10.75
2022-12-22T15:15:23.190Z,10.66
2022-12-22T15:20:33.679Z,10.66
2022-12-22T15:25:42.163Z,10.80
2022-12-22T15:30:44.990Z,10.68
2022-12-22T15:35:49.151Z,10.78
2022-12-22T15:40:53.004Z,10.64
2022-12-22T15:45:55.681Z,10.66
2022-12-22T15:50:59.956Z,10.65
2022-12-22T15:56:05.028Z,10.53
2022-12-22T16:01:07.631Z,10.49
2022-12-22T16:06:14.704Z,10.50
2022-12-22T16:11:18.239Z,10.46
2022-12-22T16:16:20.885Z,10.41
2022-12-22T16:21:31.517Z,10.38
2022-12-22T16:26:34.517Z,10.37
2022-12-22T16:31:37.314Z,10.36
2022-12-22T16:36:41.301Z,10.34
2022-12-22T16:41:47.500Z,10.32
2022-12-22T16:47:05.939Z,10.39
2022-12-22T16:52:23.190Z,10.33
2022-12-22T16:57:27.690Z,10.32
2022-12-22T17:02:34.980Z,10.31
2022-12-22T17:07:39.670Z,10.45
2022-12-22T17:12:43.836Z,10.37
2022-12-22T17:17:46.410Z,10.39
2022-12-22T17:22:56.085Z,10.45
2022-12-22T17:28:01.934Z,10.43
2022-12-22T17:33:04.639Z,10.43
2022-12-22T17:38:14.033Z,10.48
2022-12-22T17:43:18.708Z,10.47
2022-12-22T17:48:21.392Z,10.44
2022-12-22T17:53:25.500Z,10.32
2022-12-22T17:58:28.081Z,10.40
2022-12-22T18:03:30.692Z,10.44
2022-12-22T18:08:35.698Z,10.43
2022-12-22T18:13:38.620Z,10.52
2022-12-22T18:18:41.295Z,10.50
2022-12-22T18:23:49.859Z,10.48
2022-12-22T18:28:54.710Z,10.48
2022-12-22T18:33:57.516Z,10.40
2022-12-22T18:39:03.071Z,10.43
2022-12-22T18:44:11.061Z,10.51
2022-12-22T18:49:13.877Z,10.52
2022-12-22T18:54:23.855Z,10.63
2022-12-22T18:59:28.822Z,10.52
2022-12-22T19:04:31.993Z,10.50
2022-12-22T19:09:37.854Z,10.48
2022-12-22T19:14:45.668Z,10.46
2022-12-22T19:19:49.448Z,10.52
2022-12-22T19:24:57.352Z,10.52
2022-12-22T19:30:04.235Z,10.57
2022-12-22T19:35:17.690Z,10.52
2022-12-22T19:40:25.315Z,10.67
2022-12-22T19:45:30.502Z,10.68
2022-12-22T19:50:33.607Z,10.71
2022-12-22T19:55:41.349Z,10.76
2022-12-22T20:00:44.405Z,10.79
2022-12-22T20:05:47.084Z,10.78
2022-12-22T20:10:58.190Z,10.88
2022-12-22T20:16:01.662Z,10.87
2022-12-22T20:21:08.036Z,10.96
2022-12-22T20:26:17.145Z,10.94
2022-12-22T20:31:21.972Z,11.04
2022-12-22T20:36:27.563Z,11.06
2022-12-22T20:41:31.476Z,11.04
2022-12-22T20:46:34.595Z,10.96
2022-12-22T20:51:37.457Z,10.99
2022-12-22T20:56:44.584Z,10.89
2022-12-22T21:01:48.608Z,11.03
2022-12-22T21:06:53.588Z,11.07
2022-12-22T21:11:57.686Z,11.00
2022-12-22T21:17:00.896Z,11.13
2022-12-22T21:22:03.866Z,11.06
2022-12-22T21:27:11.098Z,11.24
2022-12-22T21:32:15.419Z,11.42
2022-12-22T21:37:20.238Z,11.49
2022-12-22T21:42:24.147Z,11.38
2022-12-22T21:47:26.749Z,11.38
2022-12-22T21:52:29.329Z,11.25
2022-12-22T21:57:33.316Z,11.27
2022-12-22T22:02:36.737Z,11.21
2022-12-22T22:07:39.440Z,11.07
2022-12-22T22:12:43.398Z,11.08
2022-12-22T22:17:46.749Z,11.09
2022-12-22T22:22:51.168Z,11.06
2022-12-22T22:27:58.390Z,11.02
2022-12-22T22:33:00.970Z,11.04
2022-12-22T22:38:03.629Z,10.99
2022-12-22T22:43:07.742Z,11.09
2022-12-22T22:48:19.438Z,10.95
2022-12-22T22:53:21.985Z,10.84
2022-12-22T22:58:25.872Z,11.03
2022-12-22T23:03:28.496Z,10.96
2022-12-22T23:08:33.165Z,11.01
2022-12-22T23:13:37.075Z,10.98
2022-12-22T23:18:41.005Z,10.95
2022-12-22T23:23:43.598Z,10.86
2022-12-22T23:28:47.555Z,10.75
2022-12-22T23:33:50.231Z,11.00
2022-12-22T23:38:52.837Z,11.05
2022-12-22T23:43:56.895Z,10.96
2022-12-22T23:49:00.652Z,10.74
2022-12-22T23:54:03.304Z,11.11
2022-12-22T23:59:07.243Z,11.10
